Terminal Aerodrome Forecast
Issued by NWS Shreveport, LA

Home | Current Version | Previous Version | Text Only | Print | Product List | Glossary On
Versions: 1 2 3 4 5 6 7 8 9 10 11 12
000
FTUS44 KSHV 180500
TAFELD
TAF
KELD 180520Z 1806/1906 VRB03KT P6SM BKN040 BKN110
     FM181500 02005KT P6SM BKN040
     FM181800 04007KT P6SM BKN040
     FM190100 00000KT P6SM FEW050=

USA.gov is the U.S. government's official web portal to all federal, state and local government web resources and services.